createdAt,value
2018-10-21T00:01:19.945Z,60.84
2018-10-21T00:03:48.038Z,60.82
2018-10-21T00:06:16.110Z,60.85
2018-10-21T00:08:44.221Z,60.94
2018-10-21T00:11:12.307Z,60.96
2018-10-21T00:13:40.378Z,60.98
2018-10-21T00:16:08.452Z,61.07
2018-10-21T00:18:36.642Z,61.06
2018-10-21T00:21:04.937Z,61.01
2018-10-21T00:23:32.988Z,61.04
2018-10-21T00:26:01.067Z,61.06
2018-10-21T00:28:29.143Z,61.11
2018-10-21T00:30:57.211Z,61.08
2018-10-21T00:33:25.287Z,61.21
2018-10-21T00:35:53.389Z,61.15
2018-10-21T00:38:21.479Z,61.22
2018-10-21T00:40:49.551Z,61.23
2018-10-21T00:43:17.641Z,61.05
2018-10-21T00:45:45.710Z,61.09
2018-10-21T00:48:13.777Z,61.16
2018-10-21T00:50:41.959Z,61.30
2018-10-21T00:53:09.938Z,61.37
2018-10-21T00:55:38.001Z,61.39
2018-10-21T00:58:06.069Z,61.36
2018-10-21T01:00:34.150Z,61.29
2018-10-21T01:03:02.227Z,61.24
2018-10-21T01:05:30.310Z,61.40
2018-10-21T01:07:58.383Z,61.46
2018-10-21T01:10:26.483Z,61.45
2018-10-21T01:12:54.548Z,61.36
2018-10-21T01:15:22.622Z,61.35
2018-10-21T01:17:50.694Z,61.26
2018-10-21T01:20:18.773Z,61.34
2018-10-21T01:22:46.846Z,61.27
2018-10-21T01:25:14.962Z,61.10
2018-10-21T01:27:43.023Z,61.08
2018-10-21T01:30:11.968Z,61.28
2018-10-21T01:32:40.038Z,61.22
2018-10-21T01:35:08.649Z,61.17
2018-10-21T01:37:37.141Z,61.15
2018-10-21T01:40:27.711Z,61.21
2018-10-21T01:42:55.972Z,61.21
2018-10-21T01:45:24.894Z,61.21
2018-10-21T01:47:53.038Z,61.50
2018-10-21T01:50:21.439Z,61.42
2018-10-21T01:52:49.694Z,61.63
2018-10-21T01:55:17.828Z,61.75
2018-10-21T01:57:45.901Z,61.74
2018-10-21T02:00:13.971Z,61.58
2018-10-21T02:02:42.051Z,61.51
2018-10-21T02:05:10.124Z,61.55
2018-10-21T02:07:38.299Z,61.54
2018-10-21T02:10:06.534Z,61.42
2018-10-21T02:12:34.629Z,61.25
2018-10-21T02:15:02.934Z,61.46
2018-10-21T02:17:30.948Z,61.56
2018-10-21T02:19:59.009Z,61.53
2018-10-21T02:22:27.122Z,61.32
2018-10-21T02:24:55.206Z,61.45
2018-10-21T02:27:23.279Z,61.33
2018-10-21T02:29:51.351Z,61.20
2018-10-21T02:32:19.447Z,61.19
2018-10-21T02:34:47.520Z,61.30
2018-10-21T02:37:15.679Z,61.30
2018-10-21T02:39:43.747Z,61.22
2018-10-21T02:42:12.027Z,61.38
2018-10-21T02:44:40.093Z,61.49
2018-10-21T02:47:08.169Z,61.24
2018-10-21T02:49:36.239Z,60.88
2018-10-21T02:52:09.695Z,60.56
2018-10-21T02:54:37.962Z,60.31
2018-10-21T02:57:08.656Z,60.13
2018-10-21T02:59:36.772Z,60.01
2018-10-21T03:02:05.063Z,59.93
2018-10-21T03:04:33.223Z,59.98
2018-10-21T03:07:01.301Z,59.99
2018-10-21T03:09:29.774Z,60.00
2018-10-21T03:11:57.885Z,60.06
2018-10-21T03:14:25.967Z,60.09
2018-10-21T03:16:54.060Z,60.14
2018-10-21T03:19:22.141Z,60.23
2018-10-21T03:21:50.234Z,60.34
2018-10-21T03:24:18.638Z,60.44
2018-10-21T03:26:47.522Z,60.67
2018-10-21T03:29:15.615Z,60.82
2018-10-21T03:31:43.863Z,61.00
2018-10-21T03:34:11.956Z,60.96
2018-10-21T03:36:40.035Z,60.83
2018-10-21T03:39:09.622Z,60.69
2018-10-21T03:41:37.705Z,60.52
2018-10-21T03:44:05.809Z,60.51
2018-10-21T03:46:33.885Z,60.42
2018-10-21T03:49:01.981Z,60.52
2018-10-21T03:51:30.068Z,60.37
2018-10-21T03:53:58.230Z,60.15
2018-10-21T03:56:26.300Z,59.96
2018-10-21T03:58:54.381Z,59.87
2018-10-21T04:01:22.456Z,59.73
2018-10-21T04:03:50.545Z,59.68
2018-10-21T04:06:18.627Z,59.64
2018-10-21T04:08:46.719Z,59.57
2018-10-21T04:11:14.799Z,59.53
2018-10-21T04:13:42.887Z,59.47
2018-10-21T04:16:11.063Z,59.48
2018-10-21T04:18:39.131Z,59.45
2018-10-21T04:21:07.203Z,59.63
2018-10-21T04:23:35.303Z,59.75
2018-10-21T04:26:03.378Z,59.78
2018-10-21T04:28:31.445Z,59.89
2018-10-21T04:30:59.607Z,60.00
2018-10-21T04:33:43.429Z,59.94
2018-10-21T04:36:13.410Z,59.87
2018-10-21T04:38:52.937Z,59.80
2018-10-21T04:41:21.037Z,59.90
2018-10-21T04:43:49.177Z,60.16
2018-10-21T04:46:17.278Z,60.08
2018-10-21T04:48:45.318Z,60.09
2018-10-21T04:51:13.409Z,60.27
2018-10-21T04:53:41.502Z,60.28
2018-10-21T04:56:09.559Z,60.16
2018-10-21T04:58:37.631Z,60.05
2018-10-21T05:01:05.711Z,59.95
2018-10-21T05:03:33.822Z,59.73
2018-10-21T05:06:01.906Z,59.51
2018-10-21T05:08:29.974Z,59.37
2018-10-21T05:10:58.075Z,59.20
2018-10-21T05:13:26.199Z,59.08
2018-10-21T05:15:54.319Z,58.90
2018-10-21T05:18:22.398Z,58.88
2018-10-21T05:20:50.489Z,58.91
2018-10-21T05:23:18.607Z,59.03
2018-10-21T05:25:46.694Z,59.19
2018-10-21T05:28:14.815Z,59.29
2018-10-21T05:30:42.866Z,59.33
2018-10-21T05:33:11.017Z,59.29
2018-10-21T05:35:39.134Z,59.40
2018-10-21T05:38:07.217Z,59.56
2018-10-21T05:40:35.369Z,59.61
2018-10-21T05:43:03.429Z,59.51
2018-10-21T05:45:31.528Z,59.42
2018-10-21T05:47:59.781Z,59.42
2018-10-21T05:50:28.022Z,59.56
2018-10-21T05:52:56.258Z,59.60
2018-10-21T05:55:24.338Z,59.66
2018-10-21T05:57:52.514Z,59.67
2018-10-21T06:00:20.898Z,59.62
2018-10-21T06:02:49.027Z,59.52
2018-10-21T06:05:34.318Z,59.73
2018-10-21T06:08:02.407Z,59.89
2018-10-21T06:10:30.794Z,59.96
2018-10-21T06:12:59.056Z,59.98
2018-10-21T06:15:27.144Z,60.04
2018-10-21T06:17:55.263Z,60.11
2018-10-21T06:20:24.709Z,60.31
2018-10-21T06:25:21.787Z,62.46
2018-10-21T06:27:49.901Z,61.82
2018-10-21T06:30:17.966Z,61.01
2018-10-21T06:32:46.042Z,60.63
2018-10-21T06:35:14.228Z,60.48
2018-10-21T06:37:42.420Z,60.46
2018-10-21T06:40:11.753Z,60.50
2018-10-21T06:42:39.873Z,60.72
2018-10-21T06:45:09.087Z,61.08
2018-10-21T06:47:37.099Z,61.60
2018-10-21T06:50:05.439Z,62.03
2018-10-21T06:52:33.521Z,62.29
2018-10-21T06:55:01.638Z,62.05
2018-10-21T06:57:29.863Z,62.82
2018-10-21T06:59:57.940Z,62.59
2018-10-21T07:02:26.089Z,62.60
2018-10-21T07:04:54.196Z,62.77
2018-10-21T07:07:22.229Z,62.88
2018-10-21T07:09:50.299Z,62.84
2018-10-21T07:12:18.391Z,62.69
2018-10-21T07:14:46.478Z,62.64
2018-10-21T07:17:14.562Z,62.93
2018-10-21T07:19:42.698Z,62.79
2018-10-21T07:22:10.802Z,62.64
2018-10-21T07:24:38.972Z,62.52
2018-10-21T07:27:07.140Z,62.54
2018-10-21T07:29:35.315Z,62.41
2018-10-21T07:32:03.399Z,62.11
2018-10-21T07:34:31.491Z,61.94
2018-10-21T07:36:59.567Z,61.86
2018-10-21T07:39:27.659Z,61.91
2018-10-21T07:41:55.746Z,61.73
2018-10-21T07:44:23.830Z,61.63
2018-10-21T07:46:51.914Z,61.51
2018-10-21T07:49:20.005Z,61.35
2018-10-21T07:51:48.079Z,61.35
2018-10-21T07:54:16.153Z,61.47
2018-10-21T07:56:44.222Z,61.47
2018-10-21T07:59:12.572Z,61.59
2018-10-21T08:01:40.460Z,61.67
2018-10-21T08:04:08.606Z,61.98
2018-10-21T08:06:47.998Z,62.07
2018-10-21T08:09:16.072Z,62.04
2018-10-21T08:11:44.155Z,62.24
2018-10-21T08:14:12.220Z,62.27
2018-10-21T08:16:40.301Z,62.18
2018-10-21T08:19:08.365Z,62.22
2018-10-21T08:21:36.444Z,62.12
2018-10-21T08:24:04.514Z,62.07
2018-10-21T08:26:32.596Z,62.05
2018-10-21T08:29:00.668Z,62.16
2018-10-21T08:31:28.760Z,62.26
2018-10-21T08:33:56.884Z,62.27
2018-10-21T08:36:24.914Z,62.11
2018-10-21T08:38:52.983Z,62.25
2018-10-21T08:41:21.063Z,62.26
2018-10-21T08:43:49.130Z,62.41
2018-10-21T08:46:17.294Z,62.42
2018-10-21T08:48:45.287Z,62.41
2018-10-21T08:51:13.370Z,62.45
2018-10-21T08:53:41.450Z,62.45
2018-10-21T08:56:09.540Z,62.28
2018-10-21T08:58:37.606Z,61.95
2018-10-21T09:01:05.743Z,61.52
2018-10-21T09:03:33.760Z,61.26
2018-10-21T09:06:01.834Z,61.26
2018-10-21T09:08:29.911Z,61.01
2018-10-21T09:10:58.043Z,61.16
2018-10-21T09:13:26.095Z,61.15
2018-10-21T09:15:54.182Z,60.67
2018-10-21T09:18:22.275Z,59.78
2018-10-21T09:20:50.381Z,59.42
2018-10-21T09:23:18.471Z,59.83
2018-10-21T09:25:46.560Z,59.81
2018-10-21T09:28:14.729Z,59.82
2018-10-21T09:30:42.732Z,59.42
2018-10-21T09:33:10.831Z,59.22
2018-10-21T09:35:38.899Z,59.11
2018-10-21T09:38:07.004Z,59.09
2018-10-21T09:40:35.092Z,58.97
2018-10-21T09:43:03.246Z,58.66
2018-10-21T09:45:31.262Z,58.23
2018-10-21T09:47:59.358Z,58.20
2018-10-21T09:50:27.491Z,58.02
2018-10-21T09:52:55.584Z,57.84
2018-10-21T09:55:23.749Z,57.71
2018-10-21T09:57:51.919Z,57.46
2018-10-21T10:00:44.243Z,56.88
2018-10-21T10:03:12.333Z,56.35
2018-10-21T10:05:40.416Z,56.63
2018-10-21T10:08:08.510Z,56.55
2018-10-21T10:10:36.607Z,56.31
2018-10-21T10:13:04.724Z,56.28
2018-10-21T10:15:33.233Z,55.96
2018-10-21T10:18:01.331Z,55.55
2018-10-21T10:20:29.485Z,55.26
2018-10-21T10:22:57.648Z,55.14
2018-10-21T10:25:25.835Z,54.98
2018-10-21T10:27:54.193Z,54.89
2018-10-21T10:30:22.243Z,54.31
2018-10-21T10:32:50.327Z,52.35
2018-10-21T10:35:18.438Z,52.69
2018-10-21T10:37:46.597Z,52.48
2018-10-21T10:40:14.801Z,52.27
2018-10-21T10:42:43.085Z,52.19
2018-10-21T10:45:11.228Z,52.12
2018-10-21T10:47:39.645Z,51.89
2018-10-21T10:50:09.476Z,51.58
2018-10-21T10:52:37.837Z,51.09
2018-10-21T10:55:06.543Z,50.60
2018-10-21T10:57:34.662Z,50.83
2018-10-21T11:00:03.030Z,50.72
2018-10-21T11:02:30.938Z,50.44
2018-10-21T11:04:59.035Z,50.12
2018-10-21T11:07:27.192Z,50.04
2018-10-21T11:09:55.304Z,49.67
2018-10-21T11:12:23.426Z,49.20
2018-10-21T11:14:51.545Z,49.41
2018-10-21T11:17:19.946Z,49.44
2018-10-21T11:19:48.044Z,49.03
2018-10-21T11:22:16.242Z,49.19
2018-10-21T11:24:45.764Z,49.09
2018-10-21T11:27:14.429Z,48.99
2018-10-21T11:29:42.536Z,48.79
2018-10-21T11:32:10.636Z,48.35
2018-10-21T11:34:39.163Z,47.92
2018-10-21T11:37:07.316Z,47.41
2018-10-21T11:39:35.380Z,47.55
2018-10-21T11:42:03.484Z,47.47
2018-10-21T11:44:31.566Z,47.42
2018-10-21T11:46:59.702Z,47.40
2018-10-21T11:49:27.886Z,47.24
2018-10-21T11:51:56.541Z,46.97
2018-10-21T11:54:24.617Z,46.65
2018-10-21T11:56:52.712Z,46.61
2018-10-21T11:59:20.810Z,46.28
2018-10-21T12:01:48.980Z,46.41
2018-10-21T12:04:17.106Z,46.32
2018-10-21T12:06:45.165Z,46.46
2018-10-21T12:09:13.716Z,46.06
2018-10-21T12:11:41.816Z,45.82
2018-10-21T12:14:10.469Z,45.45
2018-10-21T12:16:38.614Z,45.46
2018-10-21T12:19:06.714Z,45.27
2018-10-21T12:21:34.912Z,45.32
2018-10-21T12:24:02.998Z,45.10
2018-10-21T12:26:32.130Z,44.20
2018-10-21T12:29:00.239Z,44.35
2018-10-21T12:31:28.410Z,44.50
2018-10-21T12:33:56.600Z,44.33
2018-10-21T12:36:24.637Z,44.53
2018-10-21T12:38:52.721Z,43.65
2018-10-21T12:41:20.802Z,44.01
2018-10-21T12:43:48.896Z,43.90
2018-10-21T12:46:17.044Z,43.66
2018-10-21T12:48:45.095Z,42.60
2018-10-21T12:51:13.334Z,43.13
2018-10-21T12:53:41.427Z,43.20
2018-10-21T12:56:10.164Z,43.29
2018-10-21T12:58:39.163Z,43.37
2018-10-21T13:01:07.596Z,43.52
2018-10-21T13:03:35.792Z,43.51
2018-10-21T13:06:03.999Z,42.62
2018-10-21T13:08:32.106Z,42.81
2018-10-21T13:11:00.198Z,42.88
2018-10-21T13:13:28.386Z,42.62
2018-10-21T13:15:56.597Z,42.52
2018-10-21T13:18:24.681Z,41.40
2018-10-21T13:20:52.766Z,41.90
2018-10-21T13:23:20.865Z,42.46
2018-10-21T13:25:48.983Z,42.67
2018-10-21T13:28:17.153Z,42.72
2018-10-21T13:30:45.178Z,41.86
2018-10-21T13:33:13.368Z,41.28
2018-10-21T13:35:41.446Z,40.99
2018-10-21T13:38:09.626Z,40.90
2018-10-21T13:40:37.790Z,40.71
2018-10-21T13:43:06.096Z,40.64
2018-10-21T13:45:34.186Z,40.52
2018-10-21T13:48:02.342Z,40.07
2018-10-21T13:50:30.427Z,40.32
2018-10-21T13:52:58.622Z,40.28
2018-10-21T13:55:26.681Z,40.02
2018-10-21T13:57:54.765Z,40.02
2018-10-21T14:00:22.900Z,40.11
2018-10-21T14:02:50.975Z,40.10
2018-10-21T14:05:19.066Z,40.07
2018-10-21T14:07:47.147Z,40.32
2018-10-21T14:10:15.313Z,40.41
2018-10-21T14:12:43.337Z,40.32
2018-10-21T14:15:11.458Z,40.46
2018-10-21T14:17:39.566Z,40.08
2018-10-21T14:20:08.756Z,40.33
2018-10-21T14:22:36.843Z,40.31
2018-10-21T14:25:05.149Z,40.37
2018-10-21T14:27:33.351Z,40.32
2018-10-21T14:30:01.462Z,40.35
2018-10-21T14:32:29.474Z,40.23
2018-10-21T14:34:57.542Z,40.20
2018-10-21T14:37:25.951Z,40.11
2018-10-21T14:39:54.014Z,39.98
2018-10-21T14:42:22.307Z,39.95
2018-10-21T14:44:50.381Z,40.12
2018-10-21T14:47:18.459Z,40.22
2018-10-21T14:49:46.549Z,40.27
2018-10-21T14:52:14.625Z,40.54
2018-10-21T14:54:42.766Z,40.49
2018-10-21T14:57:11.048Z,40.63
2018-10-21T14:59:39.011Z,40.78
2018-10-21T15:02:07.196Z,40.61
2018-10-21T15:04:35.178Z,40.79
2018-10-21T15:07:03.251Z,40.86
2018-10-21T15:09:31.380Z,40.86
2018-10-21T15:11:59.442Z,40.89
2018-10-21T15:14:27.502Z,40.84
2018-10-21T15:16:55.591Z,40.82
2018-10-21T15:19:23.674Z,40.82
2018-10-21T15:21:51.764Z,40.74
2018-10-21T15:24:19.918Z,40.78
2018-10-21T15:26:48.006Z,40.88
2018-10-21T15:29:16.154Z,41.06
2018-10-21T15:31:44.270Z,41.30
2018-10-21T15:34:13.050Z,42.09
2018-10-21T15:36:41.050Z,42.63
2018-10-21T15:39:10.010Z,42.34
2018-10-21T15:41:38.279Z,42.06
2018-10-21T15:44:06.594Z,42.12
2018-10-21T15:46:34.843Z,42.48
2018-10-21T15:49:02.935Z,42.99
2018-10-21T15:51:31.042Z,43.50
2018-10-21T15:53:59.478Z,43.84
2018-10-21T15:56:27.555Z,44.04
2018-10-21T15:58:55.638Z,44.33
2018-10-21T16:01:23.722Z,44.59
2018-10-21T16:03:51.836Z,44.72
2018-10-21T16:06:19.925Z,44.87
2018-10-21T16:08:48.015Z,45.13
2018-10-21T16:11:16.105Z,45.28
2018-10-21T16:13:44.198Z,45.57
2018-10-21T16:16:12.348Z,45.96
2018-10-21T16:18:40.541Z,46.14
2018-10-21T16:21:08.618Z,46.45
2018-10-21T16:23:36.709Z,46.69
2018-10-21T16:26:05.126Z,47.12
2018-10-21T16:28:33.114Z,47.52
2018-10-21T16:31:01.270Z,48.14
2018-10-21T16:33:29.327Z,48.69
2018-10-21T16:35:57.401Z,49.02
2018-10-21T16:38:25.580Z,49.25
2018-10-21T16:40:53.561Z,49.39
2018-10-21T16:43:21.655Z,49.65
2018-10-21T16:45:49.730Z,49.79
2018-10-21T16:48:17.822Z,50.06
2018-10-21T16:50:46.037Z,50.23
2018-10-21T16:53:14.349Z,50.34
2018-10-21T16:55:42.535Z,50.50
2018-10-21T16:58:10.630Z,50.68
2018-10-21T17:00:38.912Z,51.03
2018-10-21T17:03:06.817Z,51.19
2018-10-21T17:05:35.023Z,51.62
2018-10-21T17:08:03.110Z,51.86
2018-10-21T17:10:31.504Z,51.92
2018-10-21T17:12:59.317Z,52.11
2018-10-21T17:15:27.373Z,52.17
2018-10-21T17:17:55.459Z,52.39
2018-10-21T17:20:23.601Z,52.42
2018-10-21T17:22:51.682Z,52.55
2018-10-21T17:25:19.859Z,52.56
2018-10-21T17:27:47.854Z,52.67
2018-10-21T17:30:17.441Z,52.89
2018-10-21T17:32:45.836Z,53.04
2018-10-21T17:35:13.956Z,53.00
2018-10-21T17:37:42.048Z,53.04
2018-10-21T17:40:11.391Z,53.17
2018-10-21T17:42:39.595Z,53.26
2018-10-21T17:45:09.466Z,53.54
2018-10-21T17:47:37.517Z,53.60
2018-10-21T17:50:07.145Z,53.66
2018-10-21T17:52:35.363Z,53.76
2018-10-21T17:55:03.629Z,53.82
2018-10-21T17:57:31.706Z,53.97
2018-10-21T17:59:59.857Z,54.14
2018-10-21T18:02:27.933Z,54.21
2018-10-21T18:04:56.058Z,54.48
2018-10-21T18:07:24.215Z,54.69
2018-10-21T18:09:52.293Z,54.76
2018-10-21T18:12:20.386Z,54.80
2018-10-21T18:14:48.805Z,54.86
2018-10-21T18:17:16.944Z,54.83
2018-10-21T18:19:45.025Z,54.86
2018-10-21T18:22:13.166Z,54.85
2018-10-21T18:24:41.171Z,55.00
2018-10-21T18:27:09.251Z,55.10
2018-10-21T18:29:37.339Z,55.14
2018-10-21T18:32:05.440Z,55.30
2018-10-21T18:34:33.525Z,55.29
2018-10-21T18:37:01.660Z,55.38
2018-10-21T18:39:29.690Z,55.57
2018-10-21T18:41:58.727Z,55.81
2018-10-21T18:44:26.895Z,55.84
2018-10-21T18:46:54.957Z,55.90
2018-10-21T18:49:23.039Z,56.07
2018-10-21T18:51:51.129Z,56.13
2018-10-21T18:54:19.202Z,56.30
2018-10-21T18:56:47.289Z,56.35
2018-10-21T18:59:15.367Z,56.38
2018-10-21T19:01:43.463Z,56.45
2018-10-21T19:04:11.604Z,56.62
2018-10-21T19:06:39.773Z,56.86
2018-10-21T19:09:10.193Z,56.94
2018-10-21T19:11:38.268Z,57.01
2018-10-21T19:14:06.546Z,57.04
2018-10-21T19:16:34.691Z,57.19
2018-10-21T19:19:02.797Z,57.30
2018-10-21T19:21:30.856Z,57.32
2018-10-21T19:23:58.948Z,57.50
2018-10-21T19:26:27.060Z,57.46
2018-10-21T19:28:55.134Z,57.48
2018-10-21T19:31:23.207Z,57.51
2018-10-21T19:33:51.314Z,57.61
2018-10-21T19:36:19.377Z,57.61
2018-10-21T19:38:47.531Z,57.65
2018-10-21T19:41:15.604Z,57.62
2018-10-21T19:43:43.682Z,57.64
2018-10-21T19:46:11.957Z,57.76
2018-10-21T19:48:40.140Z,57.98
2018-10-21T19:51:08.291Z,58.01
2018-10-21T19:53:36.506Z,58.00
2018-10-21T19:56:04.580Z,58.10
2018-10-21T19:58:32.689Z,58.04
2018-10-21T20:01:00.749Z,58.00
2018-10-21T20:03:28.826Z,57.96
2018-10-21T20:05:56.924Z,58.20
2018-10-21T20:08:25.008Z,58.16
2018-10-21T20:10:53.170Z,58.18
2018-10-21T20:13:21.249Z,58.20
2018-10-21T20:15:49.348Z,58.25
2018-10-21T20:18:17.470Z,58.38
2018-10-21T20:20:45.500Z,58.39
2018-10-21T20:23:13.565Z,58.44
2018-10-21T20:25:41.647Z,58.60
2018-10-21T20:28:09.789Z,58.75
2018-10-21T20:30:37.819Z,58.79
2018-10-21T20:33:05.895Z,58.77
2018-10-21T20:35:33.972Z,58.95
2018-10-21T20:38:02.083Z,59.14
2018-10-21T20:40:30.113Z,59.20
2018-10-21T20:42:58.238Z,59.13
2018-10-21T20:45:26.315Z,59.05
2018-10-21T20:47:54.415Z,59.03
2018-10-21T20:50:22.467Z,59.02
2018-10-21T20:52:50.532Z,59.01
2018-10-21T20:55:18.615Z,59.06
2018-10-21T20:57:46.692Z,59.05
2018-10-21T21:00:14.821Z,59.05
2018-10-21T21:02:42.834Z,59.10
2018-10-21T21:05:10.921Z,59.05
2018-10-21T21:07:38.988Z,59.07
2018-10-21T21:10:07.857Z,59.07
2018-10-21T21:12:35.864Z,59.10
2018-10-21T21:15:03.993Z,59.15
2018-10-21T21:17:32.057Z,59.16
2018-10-21T21:20:00.118Z,59.22
2018-10-21T21:22:28.201Z,59.22
2018-10-21T21:24:56.256Z,59.28
2018-10-21T21:27:24.329Z,59.32
2018-10-21T21:29:52.394Z,59.36
2018-10-21T21:32:20.461Z,59.39
2018-10-21T21:34:48.522Z,59.43
2018-10-21T21:37:16.596Z,59.52
2018-10-21T21:39:44.662Z,59.47
2018-10-21T21:42:12.789Z,59.37
2018-10-21T21:44:40.808Z,59.38
2018-10-21T21:47:08.933Z,59.35
2018-10-21T21:49:36.991Z,59.36
2018-10-21T21:52:05.131Z,59.31
2018-10-21T21:54:33.226Z,59.45
2018-10-21T21:57:01.300Z,59.54
2018-10-21T21:59:29.360Z,59.57
2018-10-21T22:01:57.436Z,59.72
2018-10-21T22:04:25.508Z,59.96
2018-10-21T22:06:53.586Z,59.99
2018-10-21T22:09:21.649Z,60.00
2018-10-21T22:11:49.761Z,60.09
2018-10-21T22:14:17.837Z,60.03
2018-10-21T22:16:45.919Z,60.05
2018-10-21T22:19:13.995Z,60.13
2018-10-21T22:21:42.066Z,59.98
2018-10-21T22:24:10.592Z,59.96
2018-10-21T22:26:38.851Z,60.13
2018-10-21T22:29:07.172Z,60.13
2018-10-21T22:31:35.251Z,60.27
2018-10-21T22:34:03.387Z,60.14
2018-10-21T22:36:31.406Z,60.04
2018-10-21T22:38:59.495Z,60.16
2018-10-21T22:41:27.569Z,60.29
2018-10-21T22:43:55.745Z,60.37
2018-10-21T22:46:23.816Z,60.38
2018-10-21T22:48:51.900Z,60.52
2018-10-21T22:51:19.971Z,60.51
2018-10-21T22:53:48.138Z,60.65
2018-10-21T22:56:16.229Z,60.64
2018-10-21T22:58:44.313Z,60.61
2018-10-21T23:01:12.409Z,60.69
2018-10-21T23:03:40.510Z,60.59
2018-10-21T23:06:08.647Z,60.49
2018-10-21T23:08:36.657Z,60.42
2018-10-21T23:11:04.751Z,60.38
2018-10-21T23:13:32.828Z,60.53
2018-10-21T23:16:00.981Z,60.68
2018-10-21T23:18:29.177Z,60.59
2018-10-21T23:20:57.150Z,60.60
2018-10-21T23:23:25.258Z,60.63
2018-10-21T23:25:53.509Z,60.58
2018-10-21T23:28:21.626Z,60.54
2018-10-21T23:30:49.697Z,60.58
2018-10-21T23:33:17.790Z,60.52
2018-10-21T23:35:45.893Z,60.48
2018-10-21T23:38:13.967Z,60.46
2018-10-21T23:40:42.048Z,60.44
2018-10-21T23:43:10.123Z,60.48
2018-10-21T23:45:38.265Z,60.54
2018-10-21T23:48:06.366Z,60.56
2018-10-21T23:50:34.458Z,60.73
2018-10-21T23:53:02.530Z,60.62
2018-10-21T23:55:30.664Z,60.59
2018-10-21T23:57:58.757Z,60.58
